sensor_id;sensor_type;location;lat;lon;timestamp;P1;durP1;ratioP1;P2;durP2;ratioP2
13832;SDS011;6987;19.472;-99.276;2022-07-06T00:00:13;4.78;;;3.47;;
13832;SDS011;6987;19.472;-99.276;2022-07-06T00:02:43;6.38;;;3.05;;
13832;SDS011;6987;19.472;-99.276;2022-07-06T00:05:13;8.27;;;3.20;;
13832;SDS011;6987;19.472;-99.276;2022-07-06T00:07:45;4.32;;;2.67;;
13832;SDS011;6987;19.472;-99.276;2022-07-06T00:10:16;3.85;;;2.70;;
13832;SDS011;6987;19.472;-99.276;2022-07-06T00:12:46;2.95;;;2.70;;
13832;SDS011;6987;19.472;-99.276;2022-07-06T00:15:16;2.80;;;2.50;;
13832;SDS011;6987;19.472;-99.276;2022-07-06T00:17:47;3.08;;;2.72;;
13832;SDS011;6987;19.472;-99.276;2022-07-06T00:20:17;6.28;;;2.70;;
13832;SDS011;6987;19.472;-99.276;2022-07-06T00:22:50;2.08;;;1.98;;
13832;SDS011;6987;19.472;-99.276;2022-07-06T00:25:19;2.00;;;1.88;;
13832;SDS011;6987;19.472;-99.276;2022-07-06T00:30:24;1.52;;;1.42;;
13832;SDS011;6987;19.472;-99.276;2022-07-06T00:32:54;1.92;;;1.83;;
13832;SDS011;6987;19.472;-99.276;2022-07-06T00:35:24;1.45;;;1.35;;
13832;SDS011;6987;19.472;-99.276;2022-07-06T00:37:55;1.40;;;1.30;;
13832;SDS011;6987;19.472;-99.276;2022-07-06T00:40:25;0.90;;;0.90;;
13832;SDS011;6987;19.472;-99.276;2022-07-06T00:42:55;1.10;;;1.10;;
13832;SDS011;6987;19.472;-99.276;2022-07-06T00:45:25;2.03;;;1.05;;
13832;SDS011;6987;19.472;-99.276;2022-07-06T00:47:54;1.85;;;1.08;;
13832;SDS011;6987;19.472;-99.276;2022-07-06T00:50:23;1.35;;;1.30;;
13832;SDS011;6987;19.472;-99.276;2022-07-06T00:52:56;0.98;;;0.98;;
13832;SDS011;6987;19.472;-99.276;2022-07-06T00:55:28;2.80;;;1.30;;
13832;SDS011;6987;19.472;-99.276;2022-07-06T00:57:59;1.40;;;1.30;;
13832;SDS011;6987;19.472;-99.276;2022-07-06T01:00:29;1.23;;;1.23;;
13832;SDS011;6987;19.472;-99.276;2022-07-06T01:03:00;3.30;;;1.13;;
13832;SDS011;6987;19.472;-99.276;2022-07-06T01:05:30;1.95;;;1.58;;
13832;SDS011;6987;19.472;-99.276;2022-07-06T01:08:01;2.05;;;1.58;;
13832;SDS011;6987;19.472;-99.276;2022-07-06T01:10:31;4.93;;;1.58;;
13832;SDS011;6987;19.472;-99.276;2022-07-06T01:13:00;1.83;;;1.73;;
13832;SDS011;6987;19.472;-99.276;2022-07-06T01:15:30;1.50;;;1.42;;
13832;SDS011;6987;19.472;-99.276;2022-07-06T01:17:59;1.98;;;1.88;;
13832;SDS011;6987;19.472;-99.276;2022-07-06T01:20:34;1.70;;;1.60;;
13832;SDS011;6987;19.472;-99.276;2022-07-06T01:23:03;1.92;;;1.73;;
13832;SDS011;6987;19.472;-99.276;2022-07-06T01:25:33;3.47;;;2.00;;
13832;SDS011;6987;19.472;-99.276;2022-07-06T01:28:02;2.05;;;1.40;;
13832;SDS011;6987;19.472;-99.276;2022-07-06T01:30:32;1.55;;;1.45;;
13832;SDS011;6987;19.472;-99.276;2022-07-06T01:33:02;3.90;;;2.40;;
13832;SDS011;6987;19.472;-99.276;2022-07-06T01:35:31;2.78;;;1.75;;
13832;SDS011;6987;19.472;-99.276;2022-07-06T01:38:05;1.88;;;1.77;;
13832;SDS011;6987;19.472;-99.276;2022-07-06T01:40:34;1.70;;;1.52;;
13832;SDS011;6987;19.472;-99.276;2022-07-06T01:43:04;1.77;;;1.67;;
13832;SDS011;6987;19.472;-99.276;2022-07-06T01:45:33;2.13;;;1.70;;
13832;SDS011;6987;19.472;-99.276;2022-07-06T01:48:05;2.03;;;1.77;;
13832;SDS011;6987;19.472;-99.276;2022-07-06T01:50:36;2.55;;;2.08;;
13832;SDS011;6987;19.472;-99.276;2022-07-06T01:53:05;2.33;;;2.03;;
13832;SDS011;6987;19.472;-99.276;2022-07-06T01:55:35;2.00;;;1.90;;
13832;SDS011;6987;19.472;-99.276;2022-07-06T01:58:04;2.30;;;2.15;;
13832;SDS011;6987;19.472;-99.276;2022-07-06T02:00:34;4.68;;;2.17;;
13832;SDS011;6987;19.472;-99.276;2022-07-06T02:03:03;3.17;;;2.10;;
13832;SDS011;6987;19.472;-99.276;2022-07-06T02:05:33;1.75;;;1.65;;
13832;SDS011;6987;19.472;-99.276;2022-07-06T02:08:04;1.92;;;1.83;;
13832;SDS011;6987;19.472;-99.276;2022-07-06T02:10:34;2.55;;;2.35;;
13832;SDS011;6987;19.472;-99.276;2022-07-06T02:13:03;2.45;;;2.05;;
13832;SDS011;6987;19.472;-99.276;2022-07-06T02:15:33;2.90;;;2.55;;
13832;SDS011;6987;19.472;-99.276;2022-07-06T02:18:02;2.05;;;1.95;;
13832;SDS011;6987;19.472;-99.276;2022-07-06T02:20:31;6.15;;;1.98;;
13832;SDS011;6987;19.472;-99.276;2022-07-06T02:23:02;2.53;;;2.33;;
13832;SDS011;6987;19.472;-99.276;2022-07-06T02:25:33;4.93;;;3.28;;
13832;SDS011;6987;19.472;-99.276;2022-07-06T02:28:03;2.78;;;2.00;;
13832;SDS011;6987;19.472;-99.276;2022-07-06T02:30:33;2.00;;;1.90;;
13832;SDS011;6987;19.472;-99.276;2022-07-06T02:33:02;2.20;;;2.00;;
13832;SDS011;6987;19.472;-99.276;2022-07-06T02:35:32;1.88;;;1.77;;
13832;SDS011;6987;19.472;-99.276;2022-07-06T02:38:04;2.08;;;1.90;;
13832;SDS011;6987;19.472;-99.276;2022-07-06T02:40:34;1.60;;;1.50;;
13832;SDS011;6987;19.472;-99.276;2022-07-06T02:43:04;1.58;;;1.48;;
13832;SDS011;6987;19.472;-99.276;2022-07-06T02:45:34;1.60;;;1.50;;
13832;SDS011;6987;19.472;-99.276;2022-07-06T02:48:03;1.25;;;1.25;;
13832;SDS011;6987;19.472;-99.276;2022-07-06T02:50:33;4.35;;;1.33;;
13832;SDS011;6987;19.472;-99.276;2022-07-06T02:53:08;1.75;;;1.35;;
13832;SDS011;6987;19.472;-99.276;2022-07-06T02:55:38;1.65;;;1.00;;
13832;SDS011;6987;19.472;-99.276;2022-07-06T02:58:07;1.40;;;1.23;;
13832;SDS011;6987;19.472;-99.276;2022-07-06T03:00:36;1.60;;;1.50;;
13832;SDS011;6987;19.472;-99.276;2022-07-06T03:03:05;1.35;;;1.35;;
13832;SDS011;6987;19.472;-99.276;2022-07-06T03:05:36;2.65;;;1.00;;
13832;SDS011;6987;19.472;-99.276;2022-07-06T03:08:07;1.48;;;1.38;;
13832;SDS011;6987;19.472;-99.276;2022-07-06T03:10:37;1.90;;;1.65;;
13832;SDS011;6987;19.472;-99.276;2022-07-06T03:13:06;3.28;;;1.48;;
13832;SDS011;6987;19.472;-99.276;2022-07-06T03:15:35;3.53;;;1.55;;
13832;SDS011;6987;19.472;-99.276;2022-07-06T03:18:06;1.70;;;1.60;;
13832;SDS011;6987;19.472;-99.276;2022-07-06T03:20:36;1.70;;;1.60;;
13832;SDS011;6987;19.472;-99.276;2022-07-06T03:23:07;1.45;;;1.40;;
13832;SDS011;6987;19.472;-99.276;2022-07-06T03:25:37;1.77;;;1.40;;
13832;SDS011;6987;19.472;-99.276;2022-07-06T03:28:06;3.60;;;1.52;;
13832;SDS011;6987;19.472;-99.276;2022-07-06T03:30:35;2.53;;;1.70;;
13832;SDS011;6987;19.472;-99.276;2022-07-06T03:33:05;1.35;;;1.25;;
13832;SDS011;6987;19.472;-99.276;2022-07-06T03:35:34;2.03;;;1.70;;
13832;SDS011;6987;19.472;-99.276;2022-07-06T03:38:04;4.45;;;1.65;;
13832;SDS011;6987;19.472;-99.276;2022-07-06T03:40:35;1.35;;;1.30;;
13832;SDS011;6987;19.472;-99.276;2022-07-06T03:43:04;4.05;;;2.15;;
13832;SDS011;6987;19.472;-99.276;2022-07-06T03:45:33;1.50;;;1.50;;
13832;SDS011;6987;19.472;-99.276;2022-07-06T03:48:03;1.83;;;1.70;;
13832;SDS011;6987;19.472;-99.276;2022-07-06T03:50:33;1.88;;;1.67;;
13832;SDS011;6987;19.472;-99.276;2022-07-06T03:53:02;1.77;;;1.67;;
13832;SDS011;6987;19.472;-99.276;2022-07-06T03:55:32;1.48;;;1.40;;
13832;SDS011;6987;19.472;-99.276;2022-07-06T03:58:03;1.70;;;1.60;;
13832;SDS011;6987;19.472;-99.276;2022-07-06T04:00:32;1.60;;;1.55;;
13832;SDS011;6987;19.472;-99.276;2022-07-06T04:03:02;2.55;;;1.38;;
13832;SDS011;6987;19.472;-99.276;2022-07-06T04:05:31;1.60;;;1.42;;
13832;SDS011;6987;19.472;-99.276;2022-07-06T04:08:01;2.17;;;1.60;;
13832;SDS011;6987;19.472;-99.276;2022-07-06T04:10:31;1.65;;;1.55;;
13832;SDS011;6987;19.472;-99.276;2022-07-06T04:13:02;1.58;;;1.48;;
13832;SDS011;6987;19.472;-99.276;2022-07-06T04:15:32;1.80;;;1.58;;
13832;SDS011;6987;19.472;-99.276;2022-07-06T04:18:01;2.00;;;1.60;;
13832;SDS011;6987;19.472;-99.276;2022-07-06T04:20:31;3.50;;;1.27;;
13832;SDS011;6987;19.472;-99.276;2022-07-06T04:23:00;3.33;;;1.40;;
13832;SDS011;6987;19.472;-99.276;2022-07-06T04:25:30;1.48;;;1.38;;
13832;SDS011;6987;19.472;-99.276;2022-07-06T04:27:59;2.50;;;1.58;;
13832;SDS011;6987;19.472;-99.276;2022-07-06T04:30:31;3.90;;;1.60;;
13832;SDS011;6987;19.472;-99.276;2022-07-06T04:33:00;4.13;;;1.17;;
13832;SDS011;6987;19.472;-99.276;2022-07-06T04:35:33;1.30;;;1.30;;
13832;SDS011;6987;19.472;-99.276;2022-07-06T04:38:03;1.35;;;1.35;;
13832;SDS011;6987;19.472;-99.276;2022-07-06T04:40:32;3.17;;;1.80;;
13832;SDS011;6987;19.472;-99.276;2022-07-06T04:43:04;2.72;;;1.10;;
13832;SDS011;6987;19.472;-99.276;2022-07-06T04:45:35;2.17;;;1.40;;
13832;SDS011;6987;19.472;-99.276;2022-07-06T04:48:05;1.52;;;1.42;;
13832;SDS011;6987;19.472;-99.276;2022-07-06T04:50:36;3.80;;;1.50;;
13832;SDS011;6987;19.472;-99.276;2022-07-06T04:53:05;3.20;;;1.70;;
13832;SDS011;6987;19.472;-99.276;2022-07-06T04:55:35;1.45;;;1.35;;
13832;SDS011;6987;19.472;-99.276;2022-07-06T04:58:06;1.77;;;1.67;;
13832;SDS011;6987;19.472;-99.276;2022-07-06T05:00:35;6.88;;;1.65;;
13832;SDS011;6987;19.472;-99.276;2022-07-06T05:03:04;2.60;;;2.40;;
13832;SDS011;6987;19.472;-99.276;2022-07-06T05:05:34;4.57;;;2.00;;
13832;SDS011;6987;19.472;-99.276;2022-07-06T05:08:04;4.15;;;2.38;;
13832;SDS011;6987;19.472;-99.276;2022-07-06T05:10:33;3.85;;;1.83;;
13832;SDS011;6987;19.472;-99.276;2022-07-06T05:13:02;2.75;;;2.60;;
13832;SDS011;6987;19.472;-99.276;2022-07-06T05:15:33;2.63;;;2.40;;
13832;SDS011;6987;19.472;-99.276;2022-07-06T05:18:03;2.50;;;2.30;;
13832;SDS011;6987;19.472;-99.276;2022-07-06T05:20:34;3.95;;;3.05;;
13832;SDS011;6987;19.472;-99.276;2022-07-06T05:23:04;2.67;;;2.47;;
13832;SDS011;6987;19.472;-99.276;2022-07-06T05:25:35;2.95;;;2.42;;
13832;SDS011;6987;19.472;-99.276;2022-07-06T05:28:05;3.65;;;2.88;;
13832;SDS011;6987;19.472;-99.276;2022-07-06T05:30:36;2.55;;;2.42;;
13832;SDS011;6987;19.472;-99.276;2022-07-06T05:33:06;2.65;;;2.45;;
13832;SDS011;6987;19.472;-99.276;2022-07-06T05:35:35;3.33;;;2.55;;
13832;SDS011;6987;19.472;-99.276;2022-07-06T05:38:05;1.85;;;1.75;;
13832;SDS011;6987;19.472;-99.276;2022-07-06T05:40:34;2.25;;;2.15;;
13832;SDS011;6987;19.472;-99.276;2022-07-06T05:43:03;2.65;;;2.45;;
13832;SDS011;6987;19.472;-99.276;2022-07-06T05:45:33;3.17;;;2.55;;
13832;SDS011;6987;19.472;-99.276;2022-07-06T05:48:05;3.55;;;2.55;;
13832;SDS011;6987;19.472;-99.276;2022-07-06T05:50:51;2.63;;;2.47;;
13832;SDS011;6987;19.472;-99.276;2022-07-06T05:53:21;2.50;;;2.35;;
13832;SDS011;6987;19.472;-99.276;2022-07-06T05:55:51;2.67;;;2.40;;
13832;SDS011;6987;19.472;-99.276;2022-07-06T05:58:22;4.30;;;2.95;;
13832;SDS011;6987;19.472;-99.276;2022-07-06T06:00:54;4.93;;;2.70;;
13832;SDS011;6987;19.472;-99.276;2022-07-06T06:03:23;4.25;;;2.53;;
13832;SDS011;6987;19.472;-99.276;2022-07-06T06:05:52;5.47;;;2.75;;
13832;SDS011;6987;19.472;-99.276;2022-07-06T06:08:22;3.03;;;2.78;;
13832;SDS011;6987;19.472;-99.276;2022-07-06T06:10:52;4.25;;;3.05;;
13832;SDS011;6987;19.472;-99.276;2022-07-06T06:13:21;6.78;;;3.22;;
13832;SDS011;6987;19.472;-99.276;2022-07-06T06:15:51;3.05;;;2.85;;
13832;SDS011;6987;19.472;-99.276;2022-07-06T06:18:23;3.45;;;3.25;;
13832;SDS011;6987;19.472;-99.276;2022-07-06T06:20:52;3.60;;;3.30;;
13832;SDS011;6987;19.472;-99.276;2022-07-06T06:23:21;3.60;;;3.40;;
13832;SDS011;6987;19.472;-99.276;2022-07-06T06:25:51;5.38;;;3.65;;
13832;SDS011;6987;19.472;-99.276;2022-07-06T06:28:22;5.28;;;3.75;;
13832;SDS011;6987;19.472;-99.276;2022-07-06T06:30:51;8.75;;;3.85;;
13832;SDS011;6987;19.472;-99.276;2022-07-06T06:33:23;4.63;;;4.22;;
13832;SDS011;6987;19.472;-99.276;2022-07-06T06:35:55;4.38;;;3.97;;
13832;SDS011;6987;19.472;-99.276;2022-07-06T06:38:24;4.68;;;4.22;;
13832;SDS011;6987;19.472;-99.276;2022-07-06T06:40:55;4.88;;;4.45;;
13832;SDS011;6987;19.472;-99.276;2022-07-06T06:43:25;7.40;;;5.28;;
13832;SDS011;6987;19.472;-99.276;2022-07-06T06:45:54;5.57;;;4.50;;
13832;SDS011;6987;19.472;-99.276;2022-07-06T06:48:26;8.10;;;4.68;;
13832;SDS011;6987;19.472;-99.276;2022-07-06T06:50:57;5.80;;;4.88;;
13832;SDS011;6987;19.472;-99.276;2022-07-06T06:53:27;5.40;;;4.80;;
13832;SDS011;6987;19.472;-99.276;2022-07-06T06:55:56;7.00;;;5.47;;
13832;SDS011;6987;19.472;-99.276;2022-07-06T06:58:25;6.55;;;5.13;;
13832;SDS011;6987;19.472;-99.276;2022-07-06T07:00:55;6.07;;;5.40;;
13832;SDS011;6987;19.472;-99.276;2022-07-06T07:03:29;6.75;;;6.07;;
13832;SDS011;6987;19.472;-99.276;2022-07-06T07:05:59;13.57;;;5.50;;
13832;SDS011;6987;19.472;-99.276;2022-07-06T07:08:28;10.93;;;5.68;;
13832;SDS011;6987;19.472;-99.276;2022-07-06T07:10:57;6.35;;;5.80;;
13832;SDS011;6987;19.472;-99.276;2022-07-06T07:13:27;8.10;;;6.32;;
13832;SDS011;6987;19.472;-99.276;2022-07-06T07:15:56;6.53;;;5.90;;
13832;SDS011;6987;19.472;-99.276;2022-07-06T07:18:29;7.38;;;5.88;;
13832;SDS011;6987;19.472;-99.276;2022-07-06T07:20:58;8.18;;;5.50;;
13832;SDS011;6987;19.472;-99.276;2022-07-06T07:23:28;7.82;;;5.90;;
13832;SDS011;6987;19.472;-99.276;2022-07-06T07:25:57;7.43;;;5.43;;
13832;SDS011;6987;19.472;-99.276;2022-07-06T07:28:27;8.68;;;5.30;;
13832;SDS011;6987;19.472;-99.276;2022-07-06T07:30:56;12.77;;;6.05;;
13832;SDS011;6987;19.472;-99.276;2022-07-06T07:33:26;6.72;;;6.13;;
13832;SDS011;6987;19.472;-99.276;2022-07-06T07:35:57;7.78;;;6.40;;
13832;SDS011;6987;19.472;-99.276;2022-07-06T07:38:26;8.52;;;6.07;;
13832;SDS011;6987;19.472;-99.276;2022-07-06T07:40:56;7.22;;;6.47;;
13832;SDS011;6987;19.472;-99.276;2022-07-06T07:43:25;6.97;;;6.28;;
13832;SDS011;6987;19.472;-99.276;2022-07-06T07:45:55;6.75;;;6.00;;
13832;SDS011;6987;19.472;-99.276;2022-07-06T07:48:24;11.02;;;6.30;;
13832;SDS011;6987;19.472;-99.276;2022-07-06T07:50:55;12.63;;;6.60;;
13832;SDS011;6987;19.472;-99.276;2022-07-06T07:53:25;6.30;;;5.70;;
13832;SDS011;6987;19.472;-99.276;2022-07-06T07:55:54;12.55;;;6.35;;
13832;SDS011;6987;19.472;-99.276;2022-07-06T07:58:24;7.05;;;5.57;;
13832;SDS011;6987;19.472;-99.276;2022-07-06T08:00:54;7.60;;;6.18;;
13832;SDS011;6987;19.472;-99.276;2022-07-06T08:03:23;14.18;;;10.00;;
13832;SDS011;6987;19.472;-99.276;2022-07-06T08:05:58;11.90;;;10.80;;
13832;SDS011;6987;19.472;-99.276;2022-07-06T08:08:27;12.13;;;9.57;;
13832;SDS011;6987;19.472;-99.276;2022-07-06T08:10:57;11.40;;;10.23;;
13832;SDS011;6987;19.472;-99.276;2022-07-06T08:13:26;14.52;;;10.23;;
13832;SDS011;6987;19.472;-99.276;2022-07-06T08:15:55;12.07;;;9.68;;
13832;SDS011;6987;19.472;-99.276;2022-07-06T08:18:25;11.45;;;8.43;;
13832;SDS011;6987;19.472;-99.276;2022-07-06T08:20:54;11.98;;;9.05;;
13832;SDS011;6987;19.472;-99.276;2022-07-06T08:23:25;10.15;;;9.07;;
13832;SDS011;6987;19.472;-99.276;2022-07-06T08:25:55;13.65;;;11.18;;
13832;SDS011;6987;19.472;-99.276;2022-07-06T08:28:24;14.55;;;11.30;;
13832;SDS011;6987;19.472;-99.276;2022-07-06T08:30:54;19.73;;;11.80;;
13832;SDS011;6987;19.472;-99.276;2022-07-06T08:33:24;13.18;;;11.55;;
13832;SDS011;6987;19.472;-99.276;2022-07-06T08:35:53;13.07;;;10.55;;
13832;SDS011;6987;19.472;-99.276;2022-07-06T08:38:26;11.60;;;10.32;;
13832;SDS011;6987;19.472;-99.276;2022-07-06T08:40:56;13.60;;;10.73;;
13832;SDS011;6987;19.472;-99.276;2022-07-06T08:43:25;15.85;;;10.48;;
13832;SDS011;6987;19.472;-99.276;2022-07-06T08:45:55;12.30;;;10.98;;
13832;SDS011;6987;19.472;-99.276;2022-07-06T08:48:25;13.35;;;10.80;;
13832;SDS011;6987;19.472;-99.276;2022-07-06T08:51:01;13.65;;;10.90;;
13832;SDS011;6987;19.472;-99.276;2022-07-06T08:53:36;14.25;;;10.68;;
13832;SDS011;6987;19.472;-99.276;2022-07-06T08:56:06;12.73;;;10.50;;
13832;SDS011;6987;19.472;-99.276;2022-07-06T08:58:36;13.95;;;10.30;;
13832;SDS011;6987;19.472;-99.276;2022-07-06T09:01:07;12.68;;;10.10;;
13832;SDS011;6987;19.472;-99.276;2022-07-06T09:03:39;14.93;;;11.52;;
13832;SDS011;6987;19.472;-99.276;2022-07-06T09:06:09;11.55;;;10.40;;
13832;SDS011;6987;19.472;-99.276;2022-07-06T09:08:47;11.63;;;10.57;;
13832;SDS011;6987;19.472;-99.276;2022-07-06T09:11:17;11.82;;;10.60;;
13832;SDS011;6987;19.472;-99.276;2022-07-06T09:13:49;16.48;;;10.32;;
13832;SDS011;6987;19.472;-99.276;2022-07-06T09:16:24;15.18;;;11.55;;
13832;SDS011;6987;19.472;-99.276;2022-07-06T09:18:54;11.77;;;10.52;;
13832;SDS011;6987;19.472;-99.276;2022-07-06T09:21:25;11.95;;;10.40;;
13832;SDS011;6987;19.472;-99.276;2022-07-06T09:23:58;13.43;;;12.02;;
13832;SDS011;6987;19.472;-99.276;2022-07-06T09:26:29;15.50;;;11.73;;
13832;SDS011;6987;19.472;-99.276;2022-07-06T09:29:00;15.45;;;12.50;;
13832;SDS011;6987;19.472;-99.276;2022-07-06T09:31:31;14.48;;;12.18;;
13832;SDS011;6987;19.472;-99.276;2022-07-06T09:34:00;12.68;;;10.88;;
13832;SDS011;6987;19.472;-99.276;2022-07-06T09:36:38;14.65;;;11.00;;
13832;SDS011;6987;19.472;-99.276;2022-07-06T09:39:21;11.35;;;9.63;;
13832;SDS011;6987;19.472;-99.276;2022-07-06T09:41:52;12.10;;;9.52;;
13832;SDS011;6987;19.472;-99.276;2022-07-06T09:44:23;11.38;;;9.55;;
13832;SDS011;6987;19.472;-99.276;2022-07-06T09:46:55;13.15;;;10.07;;
13832;SDS011;6987;19.472;-99.276;2022-07-06T09:49:26;12.60;;;10.95;;
13832;SDS011;6987;19.472;-99.276;2022-07-06T09:51:57;16.83;;;10.48;;
13832;SDS011;6987;19.472;-99.276;2022-07-06T09:54:29;16.05;;;12.77;;
13832;SDS011;6987;19.472;-99.276;2022-07-06T09:57:00;20.02;;;13.02;;
13832;SDS011;6987;19.472;-99.276;2022-07-06T09:59:30;19.90;;;13.52;;
13832;SDS011;6987;19.472;-99.276;2022-07-06T10:02:03;17.05;;;12.60;;
13832;SDS011;6987;19.472;-99.276;2022-07-06T10:04:33;14.73;;;13.23;;
13832;SDS011;6987;19.472;-99.276;2022-07-06T10:07:03;16.83;;;13.18;;
13832;SDS011;6987;19.472;-99.276;2022-07-06T10:09:37;13.52;;;12.02;;
13832;SDS011;6987;19.472;-99.276;2022-07-06T10:12:08;15.93;;;12.35;;
13832;SDS011;6987;19.472;-99.276;2022-07-06T10:14:40;16.50;;;12.32;;
13832;SDS011;6987;19.472;-99.276;2022-07-06T10:17:11;21.08;;;13.85;;
13832;SDS011;6987;19.472;-99.276;2022-07-06T10:19:41;14.80;;;13.27;;
13832;SDS011;6987;19.472;-99.276;2022-07-06T10:22:12;19.10;;;13.43;;
13832;SDS011;6987;19.472;-99.276;2022-07-06T10:24:45;15.68;;;11.63;;
13832;SDS011;6987;19.472;-99.276;2022-07-06T10:27:16;14.57;;;12.68;;
13832;SDS011;6987;19.472;-99.276;2022-07-06T10:29:46;14.32;;;10.60;;
13832;SDS011;6987;19.472;-99.276;2022-07-06T10:32:16;14.75;;;11.07;;
13832;SDS011;6987;19.472;-99.276;2022-07-06T10:34:47;14.05;;;10.82;;
13832;SDS011;6987;19.472;-99.276;2022-07-06T10:37:23;14.68;;;11.93;;
13832;SDS011;6987;19.472;-99.276;2022-07-06T10:39:56;14.18;;;11.93;;
13832;SDS011;6987;19.472;-99.276;2022-07-06T10:42:42;16.00;;;13.23;;
13832;SDS011;6987;19.472;-99.276;2022-07-06T10:45:19;13.70;;;12.30;;
13832;SDS011;6987;19.472;-99.276;2022-07-06T10:48:17;16.73;;;13.07;;
13832;SDS011;6987;19.472;-99.276;2022-07-06T10:50:49;17.25;;;11.68;;
13832;SDS011;6987;19.472;-99.276;2022-07-06T10:53:23;18.05;;;11.90;;
13832;SDS011;6987;19.472;-99.276;2022-07-06T10:55:56;18.45;;;13.00;;
13832;SDS011;6987;19.472;-99.276;2022-07-06T10:58:35;16.95;;;11.77;;
13832;SDS011;6987;19.472;-99.276;2022-07-06T11:01:09;14.98;;;12.05;;
13832;SDS011;6987;19.472;-99.276;2022-07-06T11:03:39;17.85;;;13.07;;
13832;SDS011;6987;19.472;-99.276;2022-07-06T11:06:10;15.57;;;13.05;;
13832;SDS011;6987;19.472;-99.276;2022-07-06T11:08:45;14.35;;;11.73;;
13832;SDS011;6987;19.472;-99.276;2022-07-06T11:11:21;15.40;;;11.80;;
13832;SDS011;6987;19.472;-99.276;2022-07-06T11:13:52;15.60;;;12.20;;
13832;SDS011;6987;19.472;-99.276;2022-07-06T11:16:28;18.67;;;12.65;;
13832;SDS011;6987;19.472;-99.276;2022-07-06T11:19:03;18.70;;;13.52;;
13832;SDS011;6987;19.472;-99.276;2022-07-06T11:21:39;17.23;;;12.10;;
13832;SDS011;6987;19.472;-99.276;2022-07-06T11:24:12;15.63;;;11.75;;
13832;SDS011;6987;19.472;-99.276;2022-07-06T11:26:45;16.67;;;13.38;;
13832;SDS011;6987;19.472;-99.276;2022-07-06T11:29:17;14.52;;;12.00;;
13832;SDS011;6987;19.472;-99.276;2022-07-06T11:31:48;14.20;;;11.38;;
13832;SDS011;6987;19.472;-99.276;2022-07-06T11:34:20;13.20;;;11.15;;
13832;SDS011;6987;19.472;-99.276;2022-07-06T11:36:54;14.15;;;11.05;;
13832;SDS011;6987;19.472;-99.276;2022-07-06T11:39:26;16.52;;;11.93;;
13832;SDS011;6987;19.472;-99.276;2022-07-06T11:41:58;13.05;;;10.73;;
13832;SDS011;6987;19.472;-99.276;2022-07-06T11:44:29;15.80;;;11.93;;
13832;SDS011;6987;19.472;-99.276;2022-07-06T11:47:02;16.20;;;11.88;;
13832;SDS011;6987;19.472;-99.276;2022-07-06T11:49:32;11.50;;;10.27;;
13832;SDS011;6987;19.472;-99.276;2022-07-06T11:52:05;16.30;;;10.85;;
13832;SDS011;6987;19.472;-99.276;2022-07-06T11:54:36;15.05;;;10.38;;
13832;SDS011;6987;19.472;-99.276;2022-07-06T11:57:09;21.92;;;11.82;;
13832;SDS011;6987;19.472;-99.276;2022-07-06T11:59:39;18.75;;;10.75;;
13832;SDS011;6987;19.472;-99.276;2022-07-06T12:02:12;13.40;;;9.32;;
13832;SDS011;6987;19.472;-99.276;2022-07-06T12:04:44;11.10;;;9.98;;
13832;SDS011;6987;19.472;-99.276;2022-07-06T12:07:16;11.20;;;10.00;;
13832;SDS011;6987;19.472;-99.276;2022-07-06T12:09:46;14.23;;;11.23;;
13832;SDS011;6987;19.472;-99.276;2022-07-06T12:12:18;11.35;;;10.13;;
13832;SDS011;6987;19.472;-99.276;2022-07-06T12:14:47;16.98;;;10.65;;
13832;SDS011;6987;19.472;-99.276;2022-07-06T12:17:21;15.27;;;9.95;;
13832;SDS011;6987;19.472;-99.276;2022-07-06T12:19:52;12.55;;;10.38;;
13832;SDS011;6987;19.472;-99.276;2022-07-06T12:22:24;11.45;;;9.65;;
13832;SDS011;6987;19.472;-99.276;2022-07-06T12:24:54;10.73;;;9.05;;
13832;SDS011;6987;19.472;-99.276;2022-07-06T12:27:26;14.80;;;9.20;;
13832;SDS011;6987;19.472;-99.276;2022-07-06T12:30:04;13.75;;;10.10;;
13832;SDS011;6987;19.472;-99.276;2022-07-06T12:32:37;10.05;;;9.07;;
13832;SDS011;6987;19.472;-99.276;2022-07-06T12:35:07;10.93;;;9.38;;
13832;SDS011;6987;19.472;-99.276;2022-07-06T12:37:37;12.10;;;9.82;;
13832;SDS011;6987;19.472;-99.276;2022-07-06T12:40:24;9.43;;;8.35;;
13832;SDS011;6987;19.472;-99.276;2022-07-06T12:42:56;15.35;;;10.30;;
13832;SDS011;6987;19.472;-99.276;2022-07-06T12:45:26;13.98;;;9.38;;
13832;SDS011;6987;19.472;-99.276;2022-07-06T12:47:59;13.68;;;9.80;;
13832;SDS011;6987;19.472;-99.276;2022-07-06T12:50:32;11.10;;;9.55;;
13832;SDS011;6987;19.472;-99.276;2022-07-06T12:53:02;10.18;;;8.77;;
13832;SDS011;6987;19.472;-99.276;2022-07-06T12:55:32;13.13;;;9.45;;
13832;SDS011;6987;19.472;-99.276;2022-07-06T12:58:04;12.68;;;9.48;;
13832;SDS011;6987;19.472;-99.276;2022-07-06T13:00:43;15.35;;;8.73;;
13832;SDS011;6987;19.472;-99.276;2022-07-06T13:03:13;22.50;;;19.05;;
13832;SDS011;6987;19.472;-99.276;2022-07-06T13:05:48;32.58;;;26.67;;
13832;SDS011;6987;19.472;-99.276;2022-07-06T13:08:18;40.25;;;32.25;;
13832;SDS011;6987;19.472;-99.276;2022-07-06T13:10:48;47.30;;;37.38;;
13832;SDS011;6987;19.472;-99.276;2022-07-06T13:13:19;47.20;;;37.58;;
13832;SDS011;6987;19.472;-99.276;2022-07-06T13:15:52;29.38;;;25.25;;
13832;SDS011;6987;19.472;-99.276;2022-07-06T13:18:21;26.02;;;21.95;;
13832;SDS011;6987;19.472;-99.276;2022-07-06T13:20:51;23.10;;;18.05;;
13832;SDS011;6987;19.472;-99.276;2022-07-06T13:23:21;18.63;;;14.50;;
13832;SDS011;6987;19.472;-99.276;2022-07-06T13:25:50;19.77;;;16.25;;
13832;SDS011;6987;19.472;-99.276;2022-07-06T13:28:23;20.02;;;14.32;;
13832;SDS011;6987;19.472;-99.276;2022-07-06T13:30:52;16.13;;;12.93;;
13832;SDS011;6987;19.472;-99.276;2022-07-06T13:33:22;16.75;;;11.35;;
13832;SDS011;6987;19.472;-99.276;2022-07-06T13:35:51;19.63;;;11.25;;
13832;SDS011;6987;19.472;-99.276;2022-07-06T13:38:22;12.60;;;10.90;;
13832;SDS011;6987;19.472;-99.276;2022-07-06T13:40:51;13.18;;;10.27;;
13832;SDS011;6987;19.472;-99.276;2022-07-06T13:43:23;12.43;;;10.98;;
13832;SDS011;6987;19.472;-99.276;2022-07-06T13:46:01;13.27;;;11.60;;
13832;SDS011;6987;19.472;-99.276;2022-07-06T13:48:31;14.77;;;11.15;;
13832;SDS011;6987;19.472;-99.276;2022-07-06T13:51:01;13.30;;;11.85;;
13832;SDS011;6987;19.472;-99.276;2022-07-06T13:53:31;13.88;;;11.70;;
13832;SDS011;6987;19.472;-99.276;2022-07-06T13:56:00;16.05;;;12.68;;
13832;SDS011;6987;19.472;-99.276;2022-07-06T13:58:32;20.33;;;14.63;;
13832;SDS011;6987;19.472;-99.276;2022-07-06T14:01:02;16.23;;;14.13;;
13832;SDS011;6987;19.472;-99.276;2022-07-06T14:03:32;18.05;;;14.98;;
13832;SDS011;6987;19.472;-99.276;2022-07-06T14:06:03;17.80;;;14.70;;
13832;SDS011;6987;19.472;-99.276;2022-07-06T14:08:34;21.08;;;14.32;;
13832;SDS011;6987;19.472;-99.276;2022-07-06T14:11:04;19.50;;;15.68;;
13832;SDS011;6987;19.472;-99.276;2022-07-06T14:13:37;17.25;;;15.13;;
13832;SDS011;6987;19.472;-99.276;2022-07-06T14:16:06;15.65;;;13.73;;
13832;SDS011;6987;19.472;-99.276;2022-07-06T14:18:36;18.27;;;14.43;;
13832;SDS011;6987;19.472;-99.276;2022-07-06T14:21:06;17.23;;;13.77;;
13832;SDS011;6987;19.472;-99.276;2022-07-06T14:23:36;17.17;;;13.80;;
13832;SDS011;6987;19.472;-99.276;2022-07-06T14:26:05;16.90;;;14.45;;
13832;SDS011;6987;19.472;-99.276;2022-07-06T14:28:36;15.75;;;13.70;;
13832;SDS011;6987;19.472;-99.276;2022-07-06T14:31:06;15.95;;;14.15;;
13832;SDS011;6987;19.472;-99.276;2022-07-06T14:33:35;20.58;;;15.75;;
13832;SDS011;6987;19.472;-99.276;2022-07-06T14:36:05;25.42;;;18.02;;
13832;SDS011;6987;19.472;-99.276;2022-07-06T14:38:35;24.02;;;17.40;;
13832;SDS011;6987;19.472;-99.276;2022-07-06T14:41:04;21.00;;;16.60;;
13832;SDS011;6987;19.472;-99.276;2022-07-06T14:43:36;21.83;;;17.38;;
13832;SDS011;6987;19.472;-99.276;2022-07-06T14:46:06;17.60;;;15.68;;